createdAt,value
2022-10-05T00:00:02.827Z,11.1
2022-10-05T00:01:05.967Z,11.1
2022-10-05T00:02:08.869Z,11.2
2022-10-05T00:03:11.394Z,11.1
2022-10-05T00:04:14.551Z,11.1
2022-10-05T00:05:18.101Z,11.1
2022-10-05T00:06:20.670Z,11
2022-10-05T00:07:23.114Z,11
2022-10-05T00:08:25.913Z,11.1
2022-10-05T00:09:28.619Z,11
2022-10-05T00:10:32.148Z,11
2022-10-05T00:11:35.579Z,11
2022-10-05T00:12:38.387Z,11
2022-10-05T00:13:41.198Z,11
2022-10-05T00:14:45.032Z,11
2022-10-05T00:15:48.819Z,11
2022-10-05T00:16:53.508Z,10.9
2022-10-05T00:17:56.611Z,11
2022-10-05T00:18:59.717Z,11
2022-10-05T00:20:02.274Z,11
2022-10-05T00:21:05.418Z,10.9
2022-10-05T00:22:08.199Z,11
2022-10-05T00:23:10.913Z,10.9
2022-10-05T00:24:13.933Z,10.9
2022-10-05T00:25:17.546Z,10.9
2022-10-05T00:26:20.976Z,11
2022-10-05T00:27:23.681Z,10.9
2022-10-05T00:28:27.207Z,10.9
2022-10-05T00:29:30.441Z,10.9
2022-10-05T00:30:34.206Z,10.9
2022-10-05T00:31:37.749Z,11
2022-10-05T00:32:41.542Z,10.9
2022-10-05T00:33:44.723Z,10.9
2022-10-05T00:34:47.444Z,10.9
2022-10-05T00:35:50.441Z,11
2022-10-05T00:36:54.209Z,11
2022-10-05T00:37:56.817Z,11
2022-10-05T00:39:00.198Z,10.9
2022-10-05T00:40:03.319Z,11
2022-10-05T00:41:06.984Z,11
2022-10-05T00:42:10.765Z,10.9
2022-10-05T00:43:13.916Z,11
2022-10-05T00:44:16.632Z,11
2022-10-05T00:45:19.581Z,11.1
2022-10-05T00:46:23.853Z,10.9
2022-10-05T00:47:27.753Z,10.9
2022-10-05T00:48:31.165Z,10.9
2022-10-05T00:49:34.260Z,10.9
2022-10-05T00:50:37.045Z,11
2022-10-05T00:51:39.558Z,11
2022-10-05T00:52:42.348Z,11
2022-10-05T00:53:45.582Z,10.9
2022-10-05T00:54:48.575Z,11
2022-10-05T00:55:51.583Z,11
2022-10-05T00:56:53.837Z,11
2022-10-05T00:57:56.752Z,11
2022-10-05T00:58:59.464Z,11
2022-10-05T01:00:02.463Z,11.1
2022-10-05T01:01:06.400Z,11
2022-10-05T01:02:10.172Z,11.1
2022-10-05T01:03:13.501Z,11.1
2022-10-05T01:04:16.289Z,11.1
2022-10-05T01:05:19.287Z,11.1
2022-10-05T01:06:22.171Z,11.1
2022-10-05T01:07:24.494Z,11.1
2022-10-05T01:08:27.551Z,11.1
2022-10-05T01:09:30.462Z,11.1
2022-10-05T01:10:33.044Z,11.1
2022-10-05T01:11:35.947Z,11.1
2022-10-05T01:12:39.020Z,11.2
2022-10-05T01:13:41.866Z,11.1
2022-10-05T01:14:44.865Z,11.1
2022-10-05T01:15:47.818Z,11.1
2022-10-05T01:16:52.653Z,11.1
2022-10-05T01:17:56.837Z,11.1
2022-10-05T01:19:00.471Z,11.2
2022-10-05T01:20:03.651Z,11.2
2022-10-05T01:21:07.383Z,11.2
2022-10-05T01:22:10.514Z,11.1
2022-10-05T01:23:13.313Z,11.2
2022-10-05T01:24:16.095Z,11.2
2022-10-05T01:25:19.444Z,11.2
2022-10-05T01:26:21.948Z,11.3
2022-10-05T01:27:24.758Z,11.2
2022-10-05T01:28:27.573Z,11.3
2022-10-05T01:29:30.712Z,11.2
2022-10-05T01:30:34.431Z,11.2
2022-10-05T01:31:38.207Z,11.3
2022-10-05T01:32:41.433Z,11.3
2022-10-05T01:33:45.277Z,11.3
2022-10-05T01:34:48.708Z,11.2
2022-10-05T01:35:51.522Z,11.2
2022-10-05T01:36:54.956Z,11.3
2022-10-05T01:37:58.100Z,11.3
2022-10-05T01:39:00.985Z,11.3
2022-10-05T01:40:04.414Z,11.3
2022-10-05T01:41:08.151Z,11.4
2022-10-05T01:42:11.241Z,11.4
2022-10-05T01:43:14.081Z,11.4
2022-10-05T01:44:16.945Z,11.4
2022-10-05T01:45:19.837Z,11.3
2022-10-05T01:46:23.432Z,11.3
2022-10-05T01:47:26.166Z,11.4
2022-10-05T01:48:29.245Z,11.4
2022-10-05T01:49:32.483Z,11.4
2022-10-05T01:50:35.942Z,11.3
2022-10-05T01:51:38.911Z,11.3
2022-10-05T01:52:42.323Z,11.4
2022-10-05T01:53:45.200Z,11.3
2022-10-05T01:54:48.542Z,11.3
2022-10-05T01:55:51.432Z,11.4
2022-10-05T01:56:54.392Z,11.4
2022-10-05T01:57:57.659Z,11.4
2022-10-05T01:59:00.938Z,11.4
2022-10-05T02:00:03.648Z,11.4
2022-10-05T02:01:07.294Z,11.4
2022-10-05T02:02:10.644Z,11.5
2022-10-05T02:03:14.022Z,11.5
2022-10-05T02:05:07.249Z,11.5
2022-10-05T02:06:10.594Z,11.5
2022-10-05T02:07:13.311Z,11.5
2022-10-05T02:08:16.690Z,11.6
2022-10-05T02:09:19.125Z,11.6
2022-10-05T02:10:22.494Z,11.6
2022-10-05T02:11:25.095Z,11.6
2022-10-05T02:12:28.563Z,11.6
2022-10-05T02:13:32.001Z,11.6
2022-10-05T02:14:35.750Z,11.7
2022-10-05T02:15:39.759Z,11.6
2022-10-05T02:16:42.652Z,11.6
2022-10-05T02:17:45.503Z,11.6
2022-10-05T02:18:48.212Z,11.6
2022-10-05T02:19:51.898Z,11.6
2022-10-05T02:20:55.955Z,11.6
2022-10-05T02:21:59.727Z,11.6
2022-10-05T02:23:02.795Z,11.6
2022-10-05T02:24:06.226Z,11.6
2022-10-05T02:25:08.580Z,11.6
2022-10-05T02:26:11.754Z,11.7
2022-10-05T02:27:14.585Z,11.7
2022-10-05T02:28:18.623Z,11.7
2022-10-05T02:29:21.854Z,11.7
2022-10-05T02:30:25.070Z,11.7
2022-10-05T02:31:29.365Z,11.8
2022-10-05T02:32:32.600Z,11.7
2022-10-05T02:33:36.394Z,11.8
2022-10-05T02:34:39.212Z,11.7
2022-10-05T02:35:42.342Z,11.8
2022-10-05T02:36:47.201Z,11.7
2022-10-05T02:37:51.636Z,11.7
2022-10-05T02:38:54.586Z,11.7
2022-10-05T02:39:58.023Z,11.7
2022-10-05T02:41:01.095Z,11.8
2022-10-05T02:42:03.409Z,11.8
2022-10-05T02:43:06.484Z,11.8
2022-10-05T02:44:09.354Z,11.9
2022-10-05T02:45:11.955Z,11.8
2022-10-05T02:46:15.233Z,11.9
2022-10-05T02:47:18.110Z,11.9
2022-10-05T02:48:21.594Z,11.9
2022-10-05T02:49:24.184Z,11.9
2022-10-05T02:50:27.311Z,11.9
2022-10-05T02:51:30.415Z,11.9
2022-10-05T02:52:33.445Z,11.9
2022-10-05T02:53:36.952Z,12
2022-10-05T02:54:39.530Z,11.9
2022-10-05T02:55:42.047Z,11.9
2022-10-05T02:56:47.210Z,11.9
2022-10-05T02:57:50.622Z,11.9
2022-10-05T02:58:53.687Z,11.9
2022-10-05T02:59:56.752Z,11.9
2022-10-05T03:01:00.431Z,11.9
2022-10-05T03:02:04.187Z,11.9
2022-10-05T03:03:07.293Z,11.9
2022-10-05T03:04:10.665Z,12
2022-10-05T03:05:13.454Z,11.9
2022-10-05T03:06:16.816Z,11.8
2022-10-05T03:07:19.876Z,11.9
2022-10-05T03:08:23.100Z,11.9
2022-10-05T03:09:26.852Z,11.8
2022-10-05T03:10:30.100Z,11.9
2022-10-05T03:11:32.625Z,11.9
2022-10-05T03:12:35.806Z,11.8
2022-10-05T03:13:38.332Z,11.9
2022-10-05T03:14:40.584Z,11.9
2022-10-05T03:15:43.814Z,11.9
2022-10-05T03:16:48.495Z,11.8
2022-10-05T03:17:52.347Z,11.9
2022-10-05T03:18:55.595Z,11.9
2022-10-05T03:19:58.890Z,11.9
2022-10-05T03:21:01.406Z,11.9
2022-10-05T03:22:04.285Z,11.9
2022-10-05T03:23:07.624Z,11.8
2022-10-05T03:24:11.113Z,11.9
2022-10-05T03:25:14.690Z,11.8
2022-10-05T03:26:17.967Z,11.8
2022-10-05T03:27:20.634Z,11.9
2022-10-05T03:28:23.976Z,11.8
2022-10-05T03:29:26.833Z,11.9
2022-10-05T03:30:29.897Z,11.8
2022-10-05T03:31:33.002Z,11.8
2022-10-05T03:32:35.889Z,11.9
2022-10-05T03:33:39.349Z,11.8
2022-10-05T03:34:41.589Z,11.8
2022-10-05T03:35:44.941Z,11.8
2022-10-05T03:36:49.956Z,11.8
2022-10-05T03:37:52.559Z,11.8
2022-10-05T03:38:56.289Z,11.8
2022-10-05T03:39:58.974Z,11.8
2022-10-05T03:41:02.626Z,11.8
2022-10-05T03:42:05.970Z,11.8
2022-10-05T03:43:08.850Z,11.8
2022-10-05T03:44:11.357Z,11.8
2022-10-05T03:45:14.537Z,11.8
2022-10-05T03:46:18.147Z,11.8
2022-10-05T03:47:21.995Z,11.8
2022-10-05T03:48:24.790Z,11.8
2022-10-05T03:49:27.611Z,11.8
2022-10-05T03:50:31.061Z,11.7
2022-10-05T03:51:34.145Z,11.7
2022-10-05T03:52:37.567Z,11.8
2022-10-05T03:53:40.362Z,11.8
2022-10-05T03:54:43.566Z,11.8
2022-10-05T03:55:47.084Z,11.7
2022-10-05T03:56:51.339Z,11.7
2022-10-05T03:57:54.309Z,11.8
2022-10-05T03:58:57.291Z,11.8
2022-10-05T03:59:59.527Z,11.8
2022-10-05T04:01:02.683Z,11.8
2022-10-05T04:02:06.016Z,11.7
2022-10-05T04:03:09.254Z,11.8
2022-10-05T04:04:12.314Z,11.8
2022-10-05T04:05:14.753Z,11.7
2022-10-05T04:06:18.206Z,11.8
2022-10-05T04:07:20.928Z,11.7
2022-10-05T04:08:24.086Z,11.8
2022-10-05T04:09:27.228Z,11.8
2022-10-05T04:10:30.680Z,11.8
2022-10-05T04:11:33.890Z,11.8
2022-10-05T04:12:37.413Z,11.8
2022-10-05T04:13:40.124Z,11.8
2022-10-05T04:14:42.910Z,11.8
2022-10-05T04:15:46.646Z,11.8
2022-10-05T04:16:50.862Z,11.8
2022-10-05T04:17:53.947Z,11.8
2022-10-05T04:18:57.213Z,11.8
2022-10-05T04:20:00.912Z,11.8
2022-10-05T04:21:04.402Z,11.8
2022-10-05T04:22:07.208Z,11.8
2022-10-05T04:23:10.500Z,11.7
2022-10-05T04:24:13.913Z,11.8
2022-10-05T04:25:17.086Z,11.8
2022-10-05T04:26:19.956Z,11.8
2022-10-05T04:27:23.265Z,11.7
2022-10-05T04:28:34.038Z,11.7
2022-10-05T04:29:37.838Z,11.7
2022-10-05T04:30:40.994Z,11.8
2022-10-05T04:31:44.832Z,11.7
2022-10-05T04:32:47.809Z,11.8
2022-10-05T04:33:50.968Z,11.7
2022-10-05T04:34:54.417Z,11.7
2022-10-05T04:35:57.290Z,11.7
2022-10-05T04:37:00.375Z,11.7
2022-10-05T04:38:02.908Z,11.7
2022-10-05T04:39:06.625Z,11.7
2022-10-05T04:40:09.414Z,11.7
2022-10-05T04:41:12.600Z,11.8
2022-10-05T04:42:16.030Z,11.7
2022-10-05T04:43:19.505Z,11.7
2022-10-05T04:44:23.269Z,11.7
2022-10-05T04:45:26.998Z,11.8
2022-10-05T04:46:30.692Z,11.7
2022-10-05T04:47:33.895Z,11.7
2022-10-05T04:48:37.637Z,11.7
2022-10-05T04:49:40.228Z,11.7
2022-10-05T04:50:43.658Z,11.7
2022-10-05T04:51:52.917Z,11.6
2022-10-05T04:52:55.455Z,11.7
2022-10-05T04:53:58.541Z,11.7
2022-10-05T04:55:01.704Z,11.7
2022-10-05T04:56:04.672Z,11.7
2022-10-05T04:57:07.383Z,11.6
2022-10-05T04:58:09.690Z,11.7
2022-10-05T04:59:12.625Z,11.6
2022-10-05T05:00:16.447Z,11.6
2022-10-05T05:01:20.286Z,11.6
2022-10-05T05:02:23.704Z,11.7
2022-10-05T05:03:27.428Z,11.6
2022-10-05T05:04:30.102Z,11.6
2022-10-05T05:05:33.790Z,11.6
2022-10-05T05:06:36.887Z,11.6
2022-10-05T05:07:39.767Z,11.6
2022-10-05T05:08:42.739Z,11.5
2022-10-05T05:09:45.928Z,11.6
2022-10-05T05:10:49.434Z,11.6
2022-10-05T05:11:52.507Z,11.6
2022-10-05T05:12:55.585Z,11.5
2022-10-05T05:13:58.370Z,11.6
2022-10-05T05:15:02.270Z,11.5
2022-10-05T05:16:06.505Z,11.6
2022-10-05T05:17:14.366Z,11.6
2022-10-05T05:18:17.720Z,11.5
2022-10-05T05:19:20.860Z,11.5
2022-10-05T05:20:23.578Z,11.5
2022-10-05T05:21:27.377Z,11.5
2022-10-05T05:22:30.462Z,11.4
2022-10-05T05:23:33.815Z,11.4
2022-10-05T05:24:36.285Z,11.4
2022-10-05T05:25:39.564Z,11.5
2022-10-05T05:26:42.715Z,11.5
2022-10-05T05:27:45.323Z,11.5
2022-10-05T05:28:48.782Z,11.5
2022-10-05T05:29:52.589Z,11.4
2022-10-05T05:30:55.486Z,11.4
2022-10-05T05:31:59.264Z,11.5
2022-10-05T05:33:02.142Z,11.5
2022-10-05T05:34:05.004Z,11.5
2022-10-05T05:35:07.882Z,11.5
2022-10-05T05:36:10.488Z,11.6
2022-10-05T05:37:13.667Z,11.6
2022-10-05T05:38:16.771Z,11.6
2022-10-05T05:39:19.366Z,11.6
2022-10-05T05:40:22.195Z,11.6
2022-10-05T05:41:25.553Z,11.6
2022-10-05T05:42:29.085Z,11.6
2022-10-05T05:43:31.804Z,11.6
2022-10-05T05:44:40.301Z,11.6
2022-10-05T05:45:43.491Z,11.5
2022-10-05T05:47:08.165Z,11.5
2022-10-05T05:48:13.421Z,11.5
2022-10-05T05:49:16.850Z,11.5
2022-10-05T05:50:20.200Z,11.6
2022-10-05T05:51:22.746Z,11.7
2022-10-05T05:52:24.715Z,11.6
2022-10-05T05:53:28.448Z,11.7
2022-10-05T05:54:31.527Z,11.7
2022-10-05T05:55:34.890Z,11.7
2022-10-05T05:56:38.045Z,11.7
2022-10-05T05:57:41.185Z,11.7
2022-10-05T05:58:43.962Z,11.7
2022-10-05T05:59:47.320Z,11.7
2022-10-05T06:00:50.539Z,11.7
2022-10-05T06:01:53.638Z,11.7
2022-10-05T06:02:57.824Z,11.7
2022-10-05T06:04:01.634Z,11.7
2022-10-05T06:05:04.519Z,11.7
2022-10-05T06:06:07.775Z,11.6
2022-10-05T06:07:11.245Z,11.8
2022-10-05T06:08:14.402Z,11.7
2022-10-05T06:09:17.279Z,11.7
2022-10-05T06:10:20.425Z,11.7
2022-10-05T06:11:23.235Z,11.8
2022-10-05T06:12:25.563Z,11.8
2022-10-05T06:13:28.738Z,11.9
2022-10-05T06:14:31.847Z,11.9
2022-10-05T06:15:34.912Z,11.9
2022-10-05T06:16:37.882Z,11.9
2022-10-05T06:17:41.047Z,11.9
2022-10-05T06:18:44.101Z,11.9
2022-10-05T06:19:47.657Z,11.9
2022-10-05T06:20:51.100Z,12
2022-10-05T06:21:54.743Z,11.9
2022-10-05T06:22:57.896Z,11.9
2022-10-05T06:24:01.321Z,11.9
2022-10-05T06:25:04.698Z,11.9
2022-10-05T06:26:12.331Z,11.9
2022-10-05T06:27:15.997Z,12
2022-10-05T06:28:19.386Z,12
2022-10-05T06:29:22.629Z,12
2022-10-05T06:30:25.085Z,12
2022-10-05T06:31:28.578Z,12
2022-10-05T06:32:31.568Z,12
2022-10-05T06:33:34.451Z,12
2022-10-05T06:34:37.857Z,12.1
2022-10-05T06:35:41.374Z,12
2022-10-05T06:36:45.445Z,12.1
2022-10-05T06:37:48.875Z,12.1
2022-10-05T06:38:51.757Z,12.1
2022-10-05T06:40:02.377Z,12.1
2022-10-05T06:41:05.759Z,12.1
2022-10-05T06:42:09.830Z,12.1
2022-10-05T06:43:12.840Z,12.1
2022-10-05T06:44:15.652Z,12.1
2022-10-05T06:45:18.803Z,12.1
2022-10-05T06:46:22.177Z,12.2
2022-10-05T06:47:25.007Z,12.2
2022-10-05T06:48:28.475Z,12.2
2022-10-05T06:49:31.540Z,12.2
2022-10-05T06:50:34.550Z,12.2
2022-10-05T06:51:38.625Z,12.2
2022-10-05T06:52:41.353Z,12.3
2022-10-05T06:53:44.709Z,12.2
2022-10-05T06:54:48.131Z,12.3
2022-10-05T06:55:51.188Z,12.2
2022-10-05T06:56:54.365Z,12.2
2022-10-05T06:57:57.711Z,12.3
2022-10-05T06:59:01.073Z,12.3
2022-10-05T07:00:03.406Z,12.3
2022-10-05T07:01:07.706Z,12.3
2022-10-05T07:02:10.766Z,12.3
2022-10-05T07:03:13.925Z,12.3
2022-10-05T07:04:17.065Z,12.3
2022-10-05T07:05:20.849Z,12.3
2022-10-05T07:06:24.942Z,12.4
2022-10-05T07:07:29.060Z,12.3
2022-10-05T07:08:32.273Z,12.3
2022-10-05T07:09:35.363Z,12.3
2022-10-05T07:10:38.149Z,12.3
2022-10-05T07:11:41.627Z,12.3
2022-10-05T07:12:45.007Z,12.4
2022-10-05T07:13:48.168Z,12.4
2022-10-05T07:14:51.929Z,12.4
2022-10-05T07:15:54.650Z,12.4
2022-10-05T07:16:58.460Z,12.4
2022-10-05T07:18:01.530Z,12.4
2022-10-05T07:19:04.313Z,12.5
2022-10-05T07:20:07.591Z,12.5
2022-10-05T07:21:10.381Z,12.4
2022-10-05T07:22:13.355Z,12.5
2022-10-05T07:23:17.244Z,12.6
2022-10-05T07:24:20.682Z,12.6
2022-10-05T07:25:24.245Z,12.6
2022-10-05T07:26:27.614Z,12.6
2022-10-05T07:27:30.851Z,12.6
2022-10-05T07:28:33.899Z,12.7
2022-10-05T07:29:36.749Z,12.6
2022-10-05T07:30:40.144Z,12.6
2022-10-05T07:31:43.298Z,12.6
2022-10-05T07:32:46.772Z,12.7
2022-10-05T07:33:49.882Z,12.8
2022-10-05T07:34:53.253Z,12.9
2022-10-05T07:35:55.976Z,12.9
2022-10-05T07:37:00.632Z,12.9
2022-10-05T07:38:04.130Z,12.9
2022-10-05T07:39:07.968Z,12.8
2022-10-05T07:40:11.044Z,12.9
2022-10-05T07:41:13.641Z,13
2022-10-05T07:42:16.991Z,13
2022-10-05T07:43:20.152Z,12.9
2022-10-05T07:44:23.594Z,13
2022-10-05T07:45:27.271Z,13.1
2022-10-05T07:46:31.023Z,13
2022-10-05T07:47:34.090Z,13
2022-10-05T07:48:37.105Z,13.1
2022-10-05T07:49:40.282Z,13.1
2022-10-05T07:50:42.519Z,13.2
2022-10-05T07:51:45.591Z,13.2
2022-10-05T07:52:49.013Z,13.2
2022-10-05T07:53:51.797Z,13.3
2022-10-05T07:54:55.376Z,13.3
2022-10-05T07:55:58.486Z,13.3
2022-10-05T07:57:01.279Z,13.3
2022-10-05T07:58:04.188Z,13.4
2022-10-05T07:59:07.656Z,13.4
2022-10-05T08:00:10.055Z,13.4
2022-10-05T08:01:13.783Z,13.4
2022-10-05T08:02:17.579Z,13.5
2022-10-05T08:03:21.616Z,13.6
2022-10-05T08:04:24.812Z,13.6
2022-10-05T08:05:28.058Z,13.7
2022-10-05T08:06:31.215Z,13.6
2022-10-05T08:07:34.587Z,13.7
2022-10-05T08:08:37.389Z,13.7
2022-10-05T08:09:41.034Z,13.7
2022-10-05T08:10:44.596Z,13.8
2022-10-05T08:11:50.010Z,13.8
2022-10-05T08:12:53.278Z,13.8
2022-10-05T08:13:56.152Z,13.9
2022-10-05T08:14:59.021Z,13.8
2022-10-05T08:16:02.673Z,13.8
2022-10-05T08:17:05.675Z,13.8
2022-10-05T08:18:09.698Z,13.9
2022-10-05T08:19:13.128Z,13.9
2022-10-05T08:20:16.597Z,13.9
2022-10-05T08:21:19.931Z,13.9
2022-10-05T08:22:22.486Z,13.9
2022-10-05T08:23:26.205Z,14
2022-10-05T08:24:29.434Z,14
2022-10-05T08:25:32.958Z,14
2022-10-05T08:26:36.575Z,14.1
2022-10-05T08:27:39.838Z,14.1
2022-10-05T08:28:43.127Z,14.1
2022-10-05T08:29:45.728Z,14.1
2022-10-05T08:30:49.144Z,14.2
2022-10-05T08:31:52.705Z,14.2
2022-10-05T08:32:55.490Z,14.2
2022-10-05T08:33:58.573Z,14.2
2022-10-05T08:35:02.208Z,14.2
2022-10-05T08:36:05.670Z,14.1
2022-10-05T08:37:08.542Z,14.1
2022-10-05T08:38:11.518Z,14.2
2022-10-05T08:39:14.052Z,14.2
2022-10-05T08:40:17.496Z,14.2
2022-10-05T08:41:19.831Z,14.2
2022-10-05T08:42:23.896Z,14.3
2022-10-05T08:43:26.152Z,14.3
2022-10-05T08:44:28.864Z,14.2
2022-10-05T08:45:31.372Z,14.3
2022-10-05T08:46:34.385Z,14.3
2022-10-05T08:47:37.077Z,14.3
2022-10-05T08:48:40.175Z,14.3
2022-10-05T08:49:43.690Z,14.4
2022-10-05T08:50:46.612Z,14.4
2022-10-05T08:51:50.781Z,14.5
2022-10-05T08:52:53.383Z,14.6
2022-10-05T08:53:56.656Z,14.6
2022-10-05T08:54:59.188Z,14.6
2022-10-05T08:56:02.177Z,14.6
2022-10-05T08:57:05.945Z,14.6
2022-10-05T08:58:09.451Z,14.6
2022-10-05T08:59:12.509Z,14.6
2022-10-05T09:00:15.711Z,14.6
2022-10-05T09:01:19.230Z,14.7
2022-10-05T09:02:23.236Z,14.6
2022-10-05T09:03:30.975Z,14.6
2022-10-05T09:04:37.730Z,14.6
2022-10-05T09:05:40.743Z,14.6
2022-10-05T09:06:44.186Z,14.5
2022-10-05T09:07:47.145Z,14.5
2022-10-05T09:08:50.570Z,14.6
2022-10-05T09:09:53.285Z,14.6
2022-10-05T09:11:00.424Z,14.5
2022-10-05T09:12:04.047Z,14.6
2022-10-05T09:13:07.946Z,14.6
2022-10-05T09:14:11.472Z,14.6
2022-10-05T09:15:32.114Z,14.7
2022-10-05T09:16:34.937Z,14.8
2022-10-05T09:17:41.055Z,14.8
2022-10-05T09:18:44.123Z,14.8
2022-10-05T09:19:48.112Z,14.9
2022-10-05T09:20:51.413Z,14.8
2022-10-05T09:21:54.002Z,14.8
2022-10-05T09:22:57.781Z,14.8
2022-10-05T09:24:00.967Z,14.8
2022-10-05T09:25:03.844Z,14.8
2022-10-05T09:26:07.272Z,14.9
2022-10-05T09:27:10.486Z,14.9
2022-10-05T09:28:13.867Z,14.8
2022-10-05T09:29:18.414Z,15
2022-10-05T09:30:21.485Z,15.1
2022-10-05T09:31:25.603Z,15
2022-10-05T09:32:29.394Z,14.9
2022-10-05T09:33:32.817Z,15.1
2022-10-05T09:34:36.558Z,15.2
2022-10-05T09:35:38.869Z,15.1
2022-10-05T09:36:42.102Z,15.3
2022-10-05T09:37:44.712Z,15.3
2022-10-05T09:38:48.245Z,15.3
2022-10-05T09:39:51.598Z,15.3
2022-10-05T09:40:54.309Z,15.4
2022-10-05T09:41:57.391Z,15.4
2022-10-05T09:43:00.271Z,15.3
2022-10-05T09:44:03.061Z,15.4
2022-10-05T09:45:07.095Z,15.4
2022-10-05T09:46:11.187Z,15.3
2022-10-05T09:47:13.985Z,15.5
2022-10-05T09:48:16.858Z,15.6
2022-10-05T09:49:19.288Z,15.5
2022-10-05T09:50:22.360Z,15.6
2022-10-05T09:51:25.135Z,15.6
2022-10-05T09:52:28.684Z,15.5
2022-10-05T09:53:32.084Z,15.6
2022-10-05T09:54:35.821Z,15.6
2022-10-05T09:55:38.384Z,15.6
2022-10-05T09:56:41.430Z,15.6
2022-10-05T09:57:45.219Z,15.6
2022-10-05T09:58:48.505Z,15.6
2022-10-05T09:59:51.955Z,15.5
2022-10-05T10:01:35.382Z,15.5
2022-10-05T10:02:40.118Z,15.7
2022-10-05T10:03:43.842Z,15.8
2022-10-05T10:04:46.699Z,15.9
2022-10-05T10:05:49.867Z,15.9
2022-10-05T10:06:52.964Z,15.9
2022-10-05T10:07:55.919Z,15.7
2022-10-05T10:08:58.648Z,15.7
2022-10-05T10:10:01.877Z,15.8
2022-10-05T10:11:04.981Z,15.8
2022-10-05T10:12:08.436Z,15.8
2022-10-05T10:13:11.520Z,15.8
2022-10-05T10:14:14.711Z,15.7
2022-10-05T10:15:17.638Z,15.8
2022-10-05T10:16:21.928Z,15.8
2022-10-05T10:17:25.348Z,15.8
2022-10-05T10:18:27.947Z,15.8
2022-10-05T10:19:31.294Z,15.9
2022-10-05T10:20:34.164Z,15.8
2022-10-05T10:21:37.595Z,15.8
2022-10-05T10:22:44.406Z,15.9
2022-10-05T10:23:48.034Z,16
2022-10-05T10:24:50.481Z,16
2022-10-05T10:25:54.344Z,16
2022-10-05T10:26:57.455Z,16.1
2022-10-05T10:27:59.713Z,16.2
2022-10-05T10:29:02.297Z,16.3
2022-10-05T10:30:05.220Z,16.1
2022-10-05T10:31:08.291Z,16.2
2022-10-05T10:32:11.437Z,16.2
2022-10-05T10:33:14.607Z,16.1
2022-10-05T10:34:17.219Z,16.2
2022-10-05T10:35:20.888Z,16.2
2022-10-05T10:36:23.441Z,16.1
2022-10-05T10:37:26.529Z,16.2
2022-10-05T10:38:30.257Z,16.1
2022-10-05T10:39:33.074Z,16.2
2022-10-05T10:40:36.502Z,16.2
2022-10-05T10:41:39.506Z,16.3
2022-10-05T10:42:42.774Z,16.4
2022-10-05T10:43:46.468Z,16.4
2022-10-05T10:44:50.197Z,16.4
2022-10-05T10:45:53.074Z,16.3
2022-10-05T10:46:56.893Z,16.4
2022-10-05T10:48:01.059Z,16.3
2022-10-05T10:49:04.131Z,16.4
2022-10-05T10:50:07.896Z,16.2
2022-10-05T10:51:10.684Z,16.2
2022-10-05T10:52:14.025Z,16.3
2022-10-05T10:53:17.104Z,16.4
2022-10-05T10:54:20.242Z,16.3
2022-10-05T10:55:23.338Z,16.3
2022-10-05T10:56:26.783Z,16.3
2022-10-05T10:57:30.333Z,16.5
2022-10-05T10:58:33.430Z,16.5
2022-10-05T10:59:35.967Z,16.3
2022-10-05T11:00:38.809Z,16.4
2022-10-05T11:01:42.488Z,16.4
2022-10-05T11:02:46.507Z,16.6
2022-10-05T11:03:50.111Z,16.4
2022-10-05T11:04:52.279Z,16.5
2022-10-05T11:05:55.146Z,16.5
2022-10-05T11:06:58.494Z,16.5
2022-10-05T11:08:00.924Z,16.6
2022-10-05T11:09:04.069Z,16.5
2022-10-05T11:10:07.843Z,16.5
2022-10-05T11:11:10.672Z,16.6
2022-10-05T11:12:13.754Z,16.9
2022-10-05T11:13:16.831Z,16.8
2022-10-05T11:14:19.408Z,17
2022-10-05T11:15:22.096Z,16.7
2022-10-05T11:16:25.186Z,16.7
2022-10-05T11:17:28.270Z,17.1
2022-10-05T11:18:31.523Z,17
2022-10-05T11:20:05.926Z,16.9
2022-10-05T11:21:09.381Z,16.6
2022-10-05T11:22:12.477Z,16.6
2022-10-05T11:23:15.904Z,16.4
2022-10-05T11:24:19.629Z,16.3
2022-10-05T11:25:22.505Z,16.3
2022-10-05T11:26:24.973Z,16.4
2022-10-05T11:27:28.045Z,16.4
2022-10-05T11:28:31.692Z,16.4
2022-10-05T11:29:34.684Z,16.4
2022-10-05T11:30:38.160Z,16.3
2022-10-05T11:31:41.793Z,16.5
2022-10-05T11:32:45.043Z,16.4
2022-10-05T11:33:49.031Z,16.5
2022-10-05T11:34:52.855Z,16.4
2022-10-05T11:35:55.350Z,16.5
2022-10-05T11:36:58.270Z,16.6
2022-10-05T11:38:00.512Z,16.7
2022-10-05T11:39:03.296Z,16.8
2022-10-05T11:40:06.251Z,16.7
2022-10-05T11:41:08.500Z,16.9
2022-10-05T11:42:11.296Z,16.6
2022-10-05T11:43:14.444Z,16.6
2022-10-05T11:44:17.624Z,16.6
2022-10-05T11:45:20.224Z,16.8
2022-10-05T11:46:23.911Z,16.7
2022-10-05T11:47:26.620Z,16.5
2022-10-05T11:48:29.806Z,16.6
2022-10-05T11:49:33.607Z,16.8
2022-10-05T11:50:37.174Z,16.8
2022-10-05T11:51:39.971Z,16.7
2022-10-05T11:52:43.306Z,16.7
2022-10-05T11:53:46.541Z,16.8
2022-10-05T11:55:19.691Z,16.8
2022-10-05T11:56:23.158Z,16.8
2022-10-05T11:57:26.340Z,16.9
2022-10-05T11:58:28.795Z,16.9
2022-10-05T11:59:32.314Z,16.8
2022-10-05T12:00:35.402Z,16.7
2022-10-05T12:01:38.838Z,16.7
2022-10-05T12:02:45.760Z,16.8
2022-10-05T12:03:50.459Z,16.9
2022-10-05T12:04:53.512Z,16.8
2022-10-05T12:05:57.568Z,16.8
2022-10-05T12:07:00.101Z,16.9
2022-10-05T12:08:02.906Z,16.8
2022-10-05T12:09:05.778Z,16.7
2022-10-05T12:10:09.035Z,16.7
2022-10-05T12:11:11.740Z,16.8
2022-10-05T12:12:14.823Z,16.7
2022-10-05T12:13:18.055Z,16.8
2022-10-05T12:14:21.304Z,17.1
2022-10-05T12:15:24.558Z,17.2
2022-10-05T12:16:27.809Z,16.9
2022-10-05T12:17:31.679Z,16.8
2022-10-05T12:18:35.414Z,17.2
2022-10-05T12:19:39.029Z,16.9
2022-10-05T12:20:42.210Z,17
2022-10-05T12:21:45.783Z,16.9
2022-10-05T12:22:48.654Z,16.9
2022-10-05T12:23:51.170Z,16.9
2022-10-05T12:24:53.966Z,16.9
2022-10-05T12:25:57.262Z,16.7
2022-10-05T12:27:00.430Z,16.8
2022-10-05T12:28:03.548Z,16.7
2022-10-05T12:29:06.423Z,16.7
2022-10-05T12:30:09.847Z,16.6
2022-10-05T12:31:13.531Z,16.7
2022-10-05T12:32:16.433Z,16.6
2022-10-05T12:33:20.058Z,16.6
2022-10-05T12:34:22.858Z,16.7
2022-10-05T12:35:50.893Z,16.6
2022-10-05T12:37:06.865Z,16.6
2022-10-05T12:38:10.132Z,16.7
2022-10-05T12:39:13.136Z,16.6
2022-10-05T12:40:15.814Z,16.5
2022-10-05T12:41:19.251Z,16.4
2022-10-05T12:42:22.710Z,16.5
2022-10-05T12:43:25.233Z,16.5
2022-10-05T12:44:28.957Z,16.6
2022-10-05T12:45:32.347Z,16.5
2022-10-05T12:46:35.400Z,16.6
2022-10-05T12:47:39.442Z,16.6
2022-10-05T12:48:42.537Z,16.6
2022-10-05T12:49:46.084Z,16.6
2022-10-05T12:50:49.222Z,16.8
2022-10-05T12:51:53.005Z,16.7
2022-10-05T12:52:56.387Z,17
2022-10-05T12:53:59.840Z,16.8
2022-10-05T12:55:02.277Z,17
2022-10-05T12:56:05.160Z,17
2022-10-05T12:57:08.030Z,17
2022-10-05T12:58:11.379Z,16.9
2022-10-05T12:59:14.518Z,17.1
2022-10-05T13:00:24.625Z,17.1
2022-10-05T13:01:27.408Z,17.1
2022-10-05T13:02:30.310Z,17
2022-10-05T13:03:33.682Z,16.9
2022-10-05T13:04:37.056Z,17.1
2022-10-05T13:05:39.962Z,17.1
2022-10-05T13:06:43.644Z,17.1
2022-10-05T13:07:46.497Z,17
2022-10-05T13:08:50.181Z,16.8
2022-10-05T13:09:53.624Z,16.7
2022-10-05T13:11:03.265Z,17
2022-10-05T13:12:06.603Z,17.1
2022-10-05T13:13:10.335Z,17.1
2022-10-05T13:14:13.413Z,17.1
2022-10-05T13:15:16.866Z,16.8
2022-10-05T13:16:19.995Z,17.1
2022-10-05T13:17:23.358Z,17.3
2022-10-05T13:18:26.582Z,17
2022-10-05T13:19:29.452Z,17.1
2022-10-05T13:20:32.345Z,17.3
2022-10-05T13:21:36.046Z,17.4
2022-10-05T13:22:38.565Z,17.6
2022-10-05T13:23:41.238Z,17.8
2022-10-05T13:24:45.264Z,17.8
2022-10-05T13:25:49.069Z,17.6
2022-10-05T13:26:52.764Z,17.4
2022-10-05T13:27:55.711Z,17.4
2022-10-05T13:28:58.892Z,17.3
2022-10-05T13:30:02.505Z,17.3
2022-10-05T13:31:05.962Z,17.1
2022-10-05T13:32:09.222Z,17
2022-10-05T13:33:12.009Z,17.1
2022-10-05T13:34:15.717Z,17.1
2022-10-05T13:35:18.507Z,17.2
2022-10-05T13:36:21.925Z,17.2
2022-10-05T13:37:25.034Z,17.3
2022-10-05T13:38:28.175Z,17.1
2022-10-05T13:39:31.078Z,17.2
2022-10-05T13:40:34.835Z,17.1
2022-10-05T13:41:38.184Z,17.1
2022-10-05T13:42:40.976Z,17.1
2022-10-05T13:43:44.610Z,17.2
2022-10-05T13:44:47.123Z,17.1
2022-10-05T13:45:58.331Z,17.3
2022-10-05T13:47:01.136Z,17.2
2022-10-05T13:48:04.023Z,17.3
2022-10-05T13:49:06.814Z,17.3
2022-10-05T13:50:10.425Z,17
2022-10-05T13:51:15.039Z,16.9
2022-10-05T13:52:19.262Z,17.1
2022-10-05T13:53:22.696Z,17
2022-10-05T13:54:25.312Z,17.1
2022-10-05T13:55:28.730Z,17.2
2022-10-05T13:56:32.322Z,17.2
2022-10-05T13:57:35.384Z,17.1
2022-10-05T13:58:38.765Z,17.2
2022-10-05T13:59:41.836Z,17.4
2022-10-05T14:00:44.907Z,17.1
2022-10-05T14:01:48.437Z,17.2
2022-10-05T14:02:51.665Z,17.3
2022-10-05T14:03:54.788Z,17.2
2022-10-05T14:04:58.169Z,17.1
2022-10-05T14:06:01.814Z,17.3
2022-10-05T14:07:05.897Z,17.6
2022-10-05T14:08:09.893Z,17.5
2022-10-05T14:09:12.968Z,17.5
2022-10-05T14:10:16.384Z,17.4
2022-10-05T14:11:19.617Z,17.4